WZZ4D1 LWSK-LATI
Flight info
| Callsign | WZZ4D1 |
|---|---|
| Flight time | N/A |
| Altitude | 14000 |
| Route | GOSTI P92 ODRAS |
| Aircraft | A20N/M-V/N |
Departure
| Time | N/A |
|---|---|
| Airport | Skopje International Airport (LWSK) |
Arrival
| Time | 2026-04-29 21:09 |
|---|---|
| Airport | Tirana International Airport Mother Teresa (LATI) |
| Time | Latitude | Longitude | Altitude | Speed | Heading |
|---|---|---|---|---|---|
| 2026-04-29 20:53 | 41.70359 | 20.66599 | 14112 ft | 374 kts | 253° |
| 2026-04-29 20:54 | 41.68727 | 20.59984 | 14112 ft | 375 kts | 253° |
| 2026-04-29 20:54 | 41.67916 | 20.56710 | 14111 ft | 375 kts | 253° |
| 2026-04-29 20:54 | 41.67077 | 20.53411 | 14109 ft | 376 kts | 252° |
| 2026-04-29 20:55 | 41.66125 | 20.50174 | 14109 ft | 376 kts | 250° |
| 2026-04-29 20:55 | 41.65118 | 20.46905 | 14109 ft | 376 kts | 249° |
| 2026-04-29 20:55 | 41.64129 | 20.43700 | 14107 ft | 377 kts | 249° |
| 2026-04-29 20:55 | 41.63128 | 20.40468 | 14105 ft | 376 kts | 249° |
| 2026-04-29 20:56 | 41.62133 | 20.37250 | 14102 ft | 377 kts | 249° |
| 2026-04-29 20:56 | 41.61131 | 20.34015 | 14105 ft | 377 kts | 249° |
| 2026-04-29 20:56 | 41.60123 | 20.30767 | 14103 ft | 377 kts | 249° |
| 2026-04-29 20:56 | 41.59122 | 20.27542 | 14104 ft | 377 kts | 249° |
| 2026-04-29 20:57 | 41.58126 | 20.24343 | 14110 ft | 377 kts | 249° |
| 2026-04-29 20:57 | 41.57127 | 20.21131 | 14106 ft | 376 kts | 249° |
| 2026-04-29 20:57 | 41.56183 | 20.17844 | 14100 ft | 375 kts | 256° |
| 2026-04-29 20:57 | 41.56000 | 20.14437 | 13808 ft | 368 kts | 277° |
| 2026-04-29 20:58 | 41.56631 | 20.11147 | 13283 ft | 361 kts | 287° |
| 2026-04-29 20:58 | 41.57385 | 20.08024 | 12798 ft | 355 kts | 287° |
| 2026-04-29 20:58 | 41.58100 | 20.04908 | 12315 ft | 349 kts | 286° |
| 2026-04-29 20:58 | 41.58766 | 20.01771 | 11830 ft | 343 kts | 285° |
| 2026-04-29 20:59 | 41.59374 | 19.98728 | 11367 ft | 337 kts | 284° |
| 2026-04-29 20:59 | 41.59954 | 19.95712 | 10914 ft | 332 kts | 284° |
| 2026-04-29 20:59 | 41.60511 | 19.92751 | 10487 ft | 326 kts | 284° |
| 2026-04-29 20:59 | 41.61049 | 19.89851 | 10061 ft | 321 kts | 284° |
| 2026-04-29 21:00 | 41.61858 | 19.87116 | 9618 ft | 316 kts | 303° |
| 2026-04-29 21:00 | 41.63351 | 19.85065 | 9406 ft | 306 kts | 321° |
| 2026-04-29 21:00 | 41.65080 | 19.83413 | 9029 ft | 302 kts | 324° |
| 2026-04-29 21:00 | 41.66826 | 19.81846 | 8524 ft | 302 kts | 325° |
| 2026-04-29 21:01 | 41.68573 | 19.80299 | 8090 ft | 299 kts | 325° |
| 2026-04-29 21:01 | 41.70289 | 19.78783 | 7718 ft | 290 kts | 325° |
| 2026-04-29 21:01 | 41.71936 | 19.77334 | 7170 ft | 281 kts | 325° |
| 2026-04-29 21:01 | 41.73531 | 19.75934 | 6553 ft | 274 kts | 325° |
| 2026-04-29 21:02 | 41.75011 | 19.74372 | 5912 ft | 265 kts | 306° |
| 2026-04-29 21:02 | 41.75638 | 19.72196 | 5594 ft | 249 kts | 274° |
| 2026-04-29 21:02 | 41.75451 | 19.69926 | 5296 ft | 243 kts | 251° |
| 2026-04-29 21:02 | 41.74634 | 19.67965 | 4977 ft | 241 kts | 229° |
| 2026-04-29 21:03 | 41.73340 | 19.66591 | 4671 ft | 239 kts | 207° |
| 2026-04-29 21:03 | 41.71744 | 19.65988 | 4362 ft | 239 kts | 184° |
| 2026-04-29 21:03 | 41.70105 | 19.66271 | 4076 ft | 238 kts | 163° |
| 2026-04-29 21:03 | 41.68590 | 19.67014 | 4005 ft | 226 kts | 160° |
| 2026-04-29 21:04 | 41.67144 | 19.67863 | 4004 ft | 224 kts | 157° |
| 2026-04-29 21:04 | 41.65699 | 19.68591 | 4004 ft | 223 kts | 166° |
| 2026-04-29 21:04 | 41.64174 | 19.69018 | 3995 ft | 222 kts | 173° |
| 2026-04-29 21:04 | 41.62640 | 19.69271 | 3807 ft | 223 kts | 175° |
| 2026-04-29 21:05 | 41.61097 | 19.69471 | 3578 ft | 219 kts | 176° |
| 2026-04-29 21:05 | 41.59602 | 19.69657 | 3373 ft | 214 kts | 176° |
| 2026-04-29 21:05 | 41.58133 | 19.69845 | 3162 ft | 210 kts | 176° |
| 2026-04-29 21:05 | 41.56697 | 19.70033 | 3033 ft | 201 kts | 175° |
| 2026-04-29 21:06 | 41.55373 | 19.70208 | 2994 ft | 184 kts | 176° |
| 2026-04-29 21:06 | 41.54080 | 19.70367 | 2554 ft | 189 kts | 175° |
| 2026-04-29 21:06 | 41.52784 | 19.70511 | 2096 ft | 189 kts | 175° |
| 2026-04-29 21:06 | 41.51532 | 19.70693 | 1783 ft | 171 kts | 171° |
| 2026-04-29 21:07 | 41.50396 | 19.70895 | 1584 ft | 158 kts | 172° |
| 2026-04-29 21:07 | 41.49295 | 19.71050 | 1421 ft | 164 kts | 175° |
| 2026-04-29 21:07 | 41.48085 | 19.71150 | 1448 ft | 172 kts | 176° |
| 2026-04-29 21:07 | 41.46939 | 19.71321 | 1134 ft | 162 kts | 171° |
| 2026-04-29 21:08 | 41.45852 | 19.71498 | 834 ft | 151 kts | 174° |
| 2026-04-29 21:08 | 41.44845 | 19.71607 | 588 ft | 139 kts | 174° |
| 2026-04-29 21:08 | 41.43876 | 19.71742 | 396 ft | 138 kts | 174° |
| 2026-04-29 21:08 | 41.42943 | 19.71864 | 206 ft | 131 kts | 174° |
| 2026-04-29 21:09 | 41.42086 | 19.71977 | 116 ft | 113 kts | 175° |
| 2026-04-29 21:09 | 41.41473 | 19.72058 | 122 ft | 64 kts | 174° |
| 2026-04-29 21:09 | 41.41194 | 19.72094 | 124 ft | 24 kts | 175° |
| 2026-04-29 21:09 | 41.41024 | 19.72113 | 126 ft | 26 kts | 174° |
| 2026-04-29 21:10 | 41.40829 | 19.72138 | 127 ft | 29 kts | 175° |
| 2026-04-29 21:10 | 41.40681 | 19.72090 | 127 ft | 20 kts | 249° |
| 2026-04-29 21:10 | 41.40651 | 19.71901 | 125 ft | 21 kts | 258° |
| 2026-04-29 21:10 | 41.40706 | 19.71767 | 124 ft | 19 kts | 351° |
| 2026-04-29 21:11 | 41.40841 | 19.71746 | 124 ft | 19 kts | 349° |
| 2026-04-29 21:11 | 41.40975 | 19.71713 | 124 ft | 19 kts | 353° |
| 2026-04-29 21:11 | 41.41111 | 19.71691 | 124 ft | 19 kts | 354° |
| 2026-04-29 21:11 | 41.41250 | 19.71676 | 122 ft | 20 kts | 355° |
| 2026-04-29 21:12 | 41.41398 | 19.71658 | 120 ft | 21 kts | 354° |
| 2026-04-29 21:12 | 41.41546 | 19.71637 | 120 ft | 21 kts | 355° |
| 2026-04-29 21:12 | 41.41700 | 19.71617 | 117 ft | 22 kts | 354° |
| 2026-04-29 21:12 | 41.41848 | 19.71597 | 117 ft | 20 kts | 355° |
| 2026-04-29 21:13 | 41.41992 | 19.71578 | 114 ft | 20 kts | 354° |
| 2026-04-29 21:13 | 41.42132 | 19.71560 | 114 ft | 19 kts | 355° |
| 2026-04-29 21:13 | 41.42259 | 19.71538 | 112 ft | 13 kts | 328° |